createdAt,value
2022-07-25T00:03:33.635Z,18.02
2022-07-25T00:08:55.779Z,17.89
2022-07-25T00:14:18.100Z,17.82
2022-07-25T00:19:40.789Z,17.76
2022-07-25T00:25:03.168Z,17.65
2022-07-25T00:30:25.542Z,17.68
2022-07-25T00:35:47.669Z,17.62
2022-07-25T00:41:10.107Z,17.55
2022-07-25T00:46:32.461Z,17.32
2022-07-25T00:51:55.768Z,17.42
2022-07-25T00:57:18.113Z,17.34
2022-07-25T01:02:41.111Z,17.30
2022-07-25T01:08:04.365Z,17.30
2022-07-25T01:13:26.442Z,17.30
2022-07-25T01:18:48.392Z,17.16
2022-07-25T01:24:11.692Z,17.20
2022-07-25T01:29:33.693Z,17.17
2022-07-25T01:34:58.297Z,17.09
2022-07-25T01:40:20.478Z,17.02
2022-07-25T01:45:43.202Z,17.07
2022-07-25T01:51:05.579Z,17.13
2022-07-25T01:56:27.531Z,17.13
2022-07-25T02:01:52.210Z,16.91
2022-07-25T02:07:14.559Z,17.10
2022-07-25T02:12:36.301Z,16.97
2022-07-25T02:17:59.302Z,17.18
2022-07-25T02:23:21.177Z,16.71
2022-07-25T02:28:43.718Z,16.82
2022-07-25T02:34:06.609Z,16.72
2022-07-25T02:39:29.651Z,17.01
2022-07-25T02:44:54.362Z,16.99
2022-07-25T02:50:19.522Z,17.07
2022-07-25T02:55:42.085Z,17.57
2022-07-25T03:01:04.703Z,17.62
2022-07-25T03:06:27.080Z,17.81
2022-07-25T03:11:51.010Z,17.81
2022-07-25T03:17:13.320Z,17.90
2022-07-25T03:22:38.763Z,17.98
2022-07-25T03:28:01.418Z,18.22
2022-07-25T03:33:23.485Z,18.25
2022-07-25T03:38:45.769Z,18.31
2022-07-25T03:44:09.446Z,18.77
2022-07-25T03:49:31.951Z,19.02
2022-07-25T03:54:54.147Z,19.30
2022-07-25T04:00:19.609Z,19.40
2022-07-25T04:05:47.767Z,19.55
2022-07-25T04:11:10.158Z,19.78
2022-07-25T04:16:33.057Z,19.98
2022-07-25T04:21:56.511Z,20.23
2022-07-25T04:27:19.001Z,20.54
2022-07-25T04:32:41.098Z,20.80
2022-07-25T04:38:04.888Z,20.99
2022-07-25T04:43:29.411Z,21.46
2022-07-25T04:48:52.076Z,22.12
2022-07-25T04:54:14.368Z,22.98
2022-07-25T04:59:36.771Z,24.90
2022-07-25T05:04:59.016Z,26.29
2022-07-25T05:10:27.665Z,26.75
2022-07-25T05:15:52.062Z,26.88
2022-07-25T05:21:14.358Z,27.23
2022-07-25T05:26:36.597Z,27.84
2022-07-25T05:31:59.418Z,28.53
2022-07-25T05:37:21.931Z,29.02
2022-07-25T05:42:44.425Z,29.38
2022-07-25T05:48:07.226Z,29.70
2022-07-25T05:53:29.825Z,29.89
2022-07-25T05:58:51.967Z,30.16
2022-07-25T06:04:16.819Z,30.55
2022-07-25T06:09:41.913Z,30.76
2022-07-25T06:15:04.533Z,30.63
2022-07-25T06:20:30.079Z,30.55
2022-07-25T06:25:52.318Z,30.61
2022-07-25T06:31:14.605Z,30.65
2022-07-25T06:36:36.696Z,30.68
2022-07-25T06:42:00.340Z,30.73
2022-07-25T06:47:32.864Z,30.81
2022-07-25T06:52:57.929Z,30.91
2022-07-25T06:58:22.772Z,30.96
2022-07-25T07:03:46.088Z,30.92
2022-07-25T07:09:08.430Z,31.07
2022-07-25T07:14:30.613Z,31.08
2022-07-25T07:19:52.410Z,31.10
2022-07-25T07:25:19.929Z,31.25
2022-07-25T07:36:25.301Z,31.51
2022-07-25T07:41:47.180Z,31.60
2022-07-25T07:47:14.567Z,31.64
2022-07-25T07:52:37.749Z,31.27
2022-07-25T07:58:00.361Z,31.39
2022-07-25T08:03:22.877Z,31.47
2022-07-25T08:08:45.668Z,31.74
2022-07-25T08:14:08.416Z,31.99
2022-07-25T08:25:38.844Z,31.41
2022-07-25T08:31:02.470Z,30.97
2022-07-25T08:36:24.711Z,30.62
2022-07-25T08:41:48.797Z,29.93
2022-07-25T08:47:16.417Z,30.11
2022-07-25T08:52:44.765Z,30.01
2022-07-25T08:58:09.603Z,30.17
2022-07-25T09:03:36.818Z,30.54
2022-07-25T09:09:08.998Z,30.33
2022-07-25T09:20:36.833Z,29.97
2022-07-25T09:26:14.328Z,29.83
2022-07-25T09:31:36.332Z,29.98
2022-07-25T09:36:58.831Z,30.39
2022-07-25T09:42:37.049Z,30.84
2022-07-25T09:48:04.373Z,31.11
2022-07-25T09:53:26.872Z,31.17
2022-07-25T09:58:51.434Z,31.20
2022-07-25T10:04:27.327Z,31.32
2022-07-25T10:09:52.311Z,31.51
2022-07-25T10:15:15.073Z,31.30
2022-07-25T10:26:56.319Z,30.95
2022-07-25T10:32:32.957Z,31.18
2022-07-25T10:38:31.397Z,31.33
2022-07-25T10:44:11.356Z,30.70
2022-07-25T10:56:06.180Z,30.10
2022-07-25T11:01:38.878Z,29.70
2022-07-25T11:07:18.404Z,29.68
2022-07-25T11:12:41.012Z,29.50
2022-07-25T11:18:15.832Z,29.43
2022-07-25T11:23:41.337Z,29.73
2022-07-25T11:29:03.457Z,29.74
2022-07-25T11:34:31.883Z,29.72
2022-07-25T11:39:56.378Z,29.50
2022-07-25T11:45:34.092Z,29.58
2022-07-25T11:50:57.857Z,29.49
2022-07-25T12:02:04.677Z,29.53
2022-07-25T12:07:47.752Z,29.81
2022-07-25T12:13:11.153Z,30.20
2022-07-25T12:18:33.249Z,30.17
2022-07-25T12:23:55.503Z,30.23
2022-07-25T12:29:20.446Z,30.43
2022-07-25T12:34:46.751Z,30.27
2022-07-25T12:40:10.101Z,30.44
2022-07-25T12:45:32.787Z,30.47
2022-07-25T12:50:55.880Z,30.60
2022-07-25T12:56:17.848Z,30.51
2022-07-25T13:01:40.471Z,30.63
2022-07-25T13:07:06.241Z,30.45
2022-07-25T13:12:29.636Z,30.42
2022-07-25T13:17:52.158Z,30.61
2022-07-25T13:23:18.781Z,30.51
2022-07-25T13:28:42.966Z,30.46
2022-07-25T13:34:05.579Z,30.33
2022-07-25T13:39:27.912Z,30.32
2022-07-25T13:44:52.467Z,30.39
2022-07-25T13:50:14.802Z,30.45
2022-07-25T13:55:36.883Z,30.46
2022-07-25T14:00:58.672Z,30.50
2022-07-25T14:06:20.763Z,30.53
2022-07-25T14:11:42.994Z,30.69
2022-07-25T14:17:06.032Z,30.80
2022-07-25T14:22:28.120Z,30.84
2022-07-25T14:27:49.971Z,30.76
2022-07-25T14:33:11.872Z,30.65
2022-07-25T14:38:33.674Z,30.35
2022-07-25T14:43:56.478Z,30.13
2022-07-25T14:49:18.169Z,29.84
2022-07-25T14:54:41.259Z,29.75
2022-07-25T15:00:06.012Z,29.65
2022-07-25T15:05:27.960Z,29.52
2022-07-25T15:10:50.032Z,29.40
2022-07-25T15:16:11.730Z,29.32
2022-07-25T15:21:34.396Z,29.05
2022-07-25T15:27:02.384Z,28.95
2022-07-25T15:32:25.038Z,28.67
2022-07-25T15:37:47.940Z,28.43
2022-07-25T15:43:17.951Z,28.12
2022-07-25T15:48:43.897Z,28.21
2022-07-25T15:54:07.328Z,28.10
2022-07-25T15:59:32.813Z,27.70
2022-07-25T16:04:55.235Z,27.54
2022-07-25T16:10:19.376Z,27.51
2022-07-25T16:15:42.512Z,27.59
2022-07-25T16:21:06.067Z,27.76
2022-07-25T16:26:28.277Z,27.72
2022-07-25T16:31:51.125Z,27.66
2022-07-25T16:37:13.892Z,27.54
2022-07-25T16:42:36.898Z,27.50
2022-07-25T16:47:58.950Z,27.48
2022-07-25T16:53:21.169Z,27.26
2022-07-25T16:58:43.507Z,27.25
2022-07-25T17:04:06.145Z,26.96
2022-07-25T17:09:28.038Z,26.83
2022-07-25T17:14:50.587Z,26.65
2022-07-25T17:20:12.914Z,26.53
2022-07-25T17:25:35.285Z,26.42
2022-07-25T17:30:57.902Z,26.31
2022-07-25T17:36:20.195Z,26.19
2022-07-25T17:41:42.578Z,26.12
2022-07-25T17:47:05.263Z,25.91
2022-07-25T17:52:27.632Z,25.89
2022-07-25T17:57:53.487Z,25.83
2022-07-25T18:03:15.747Z,25.68
2022-07-25T18:08:38.045Z,25.59
2022-07-25T18:14:00.153Z,25.30
2022-07-25T18:19:28.385Z,24.83
2022-07-25T18:24:50.767Z,24.72
2022-07-25T18:30:15.150Z,24.74
2022-07-25T18:35:38.001Z,24.66
2022-07-25T18:41:26.489Z,24.39
2022-07-25T18:46:47.004Z,24.71
2022-07-25T18:52:10.404Z,24.61
2022-07-25T18:57:33.623Z,24.25
2022-07-25T19:02:55.771Z,24.09
2022-07-25T19:08:21.342Z,24.13
2022-07-25T19:13:51.347Z,23.85
2022-07-25T19:19:39.490Z,24.19
2022-07-25T19:25:06.151Z,24.11
2022-07-25T19:30:28.291Z,24.04
2022-07-25T19:35:50.780Z,23.99
2022-07-25T19:41:15.039Z,23.92
2022-07-25T19:46:37.121Z,23.87
2022-07-25T19:51:59.963Z,23.74
2022-07-25T19:57:22.058Z,23.60
2022-07-25T20:02:44.843Z,23.49
2022-07-25T20:08:07.611Z,23.25
2022-07-25T20:13:32.531Z,23.25
2022-07-25T20:18:54.830Z,23.29
2022-07-25T20:24:21.275Z,22.86
2022-07-25T20:29:44.249Z,23.15
2022-07-25T20:35:07.141Z,23.00
2022-07-25T20:45:52.336Z,22.95
2022-07-25T20:51:14.381Z,22.96
2022-07-25T20:56:36.501Z,22.87
2022-07-25T21:01:58.796Z,22.88
2022-07-25T21:07:21.705Z,22.85
2022-07-25T21:12:45.770Z,22.76
2022-07-25T21:18:08.132Z,22.65
2022-07-25T21:23:31.586Z,22.30
2022-07-25T21:28:55.957Z,22.10
2022-07-25T21:34:18.399Z,21.94
2022-07-25T21:39:43.344Z,22.30
2022-07-25T21:45:06.338Z,22.00
2022-07-25T21:50:43.889Z,22.01
2022-07-25T21:56:06.563Z,22.21
2022-07-25T22:01:29.321Z,22.13
2022-07-25T22:06:51.743Z,21.92
2022-07-25T22:12:17.379Z,22.18
2022-07-25T22:17:48.883Z,21.89
2022-07-25T22:23:11.955Z,22.32
2022-07-25T22:28:33.951Z,22.32
2022-07-25T22:33:55.586Z,22.09
2022-07-25T22:39:17.751Z,22.15
2022-07-25T22:44:39.841Z,22.11
2022-07-25T22:50:01.850Z,21.97
2022-07-25T22:55:24.417Z,21.65
2022-07-25T23:00:46.879Z,21.90
2022-07-25T23:06:09.146Z,21.85
2022-07-25T23:11:31.566Z,21.61
2022-07-25T23:17:12.393Z,21.67
2022-07-25T23:22:34.628Z,21.35
2022-07-25T23:27:57.340Z,21.38
2022-07-25T23:33:25.671Z,21.26
2022-07-25T23:38:48.208Z,21.31
2022-07-25T23:44:11.684Z,21.22
2022-07-25T23:49:33.872Z,21.07
2022-07-25T23:54:56.125Z,20.94
